Time;durP1;ratioP1;P1;durP2;ratioP2;P2;SDS_P1;SDS_P2;PMS_P1;PMS_P2;Temp;Humidity;BMP_temperature;BMP_pressure;BME280_temperature;BME280_humidity;BME280_pressure;Samples;Min_cycle;Max_cycle;Signal;HPM_P1;HPM_P2
2023/10/01 00:02:05;;;;;;;16.37;7.30;;;12.20;99.90;;;;;;5052120;28;20278;-70
2023/10/01 00:04:32;;;;;;;13.20;7.43;;;12.20;99.90;;;;;;5035375;28;20208;-70
2023/10/01 00:06:59;;;;;;;18.10;8.20;;;12.20;99.90;;;;;;5053233;28;20410;-70
2023/10/01 00:09:24;;;;;;;16.70;8.03;;;12.10;99.90;;;;;;5053130;28;20815;-71
2023/10/01 00:11:50;;;;;;;19.23;8.30;;;12.00;99.90;;;;;;5051898;28;20428;-70
2023/10/01 00:14:16;;;;;;;14.53;7.77;;;11.90;99.90;;;;;;5051536;28;20183;-70
2023/10/01 00:16:42;;;;;;;18.10;7.77;;;11.70;99.90;;;;;;5053059;28;20180;-70
2023/10/01 00:19:10;;;;;;;15.73;7.43;;;11.70;99.90;;;;;;5052998;28;20798;-70
2023/10/01 00:21:36;;;;;;;15.63;7.40;;;11.70;99.90;;;;;;5051639;28;20422;-70
2023/10/01 00:24:02;;;;;;;16.70;7.70;;;11.70;99.90;;;;;;5052869;28;20946;-70
2023/10/01 00:26:27;;;;;;;17.40;7.70;;;11.70;99.90;;;;;;5052811;28;20570;-71
2023/10/01 00:28:53;;;;;;;13.80;7.40;;;11.80;99.90;;;;;;5052728;28;20210;-71
2023/10/01 00:31:19;;;;;;;16.77;8.00;;;11.90;99.90;;;;;;5052827;28;20666;-70
2023/10/01 00:33:47;;;;;;;16.47;8.33;;;11.80;99.90;;;;;;5052791;28;20529;-70
2023/10/01 00:36:13;;;;;;;11.20;6.10;;;11.80;99.90;;;;;;5052634;28;20438;-70
2023/10/01 00:38:38;;;;;;;15.17;7.10;;;11.80;99.90;;;;;;5051473;28;20417;-71
2023/10/01 00:41:07;;;;;;;14.10;7.10;;;11.80;99.90;;;;;;5052619;28;20927;-70
2023/10/01 00:43:33;;;;;;;15.83;8.00;;;11.90;99.90;;;;;;5051204;28;20730;-70
2023/10/01 00:45:59;;;;;;;16.10;7.60;;;12.00;99.90;;;;;;5051459;28;20450;-70
2023/10/01 00:48:24;;;;;;;18.80;8.00;;;12.00;99.90;;;;;;5051002;28;20577;-71
2023/10/01 00:50:54;;;;;;;22.27;8.40;;;12.00;99.90;;;;;;5052406;28;20514;-70
2023/10/01 00:53:21;;;;;;;16.33;7.90;;;11.90;99.90;;;;;;5051123;28;20217;-70
2023/10/01 00:55:48;;;;;;;19.73;8.27;;;11.70;99.90;;;;;;5052578;28;20508;-71
2023/10/01 00:58:15;;;;;;;15.03;7.40;;;11.90;99.90;;;;;;5052201;28;20954;-70
2023/10/01 01:00:42;;;;;;;16.57;7.13;;;11.90;99.90;;;;;;5051010;28;20422;-70
2023/10/01 01:03:09;;;;;;;18.03;6.90;;;12.00;99.90;;;;;;5050822;28;20508;-70
2023/10/01 01:05:37;;;;;;;13.50;6.40;;;11.90;99.90;;;;;;5051995;28;20449;-70
2023/10/01 01:08:09;;;;;;;17.37;6.57;;;12.00;99.90;;;;;;5052134;28;20970;-71
2023/10/01 01:10:41;;;;;;;23.97;8.53;;;12.00;99.90;;;;;;5050775;28;20997;-71
2023/10/01 01:13:07;;;;;;;13.13;6.73;;;11.90;99.90;;;;;;5051988;28;20408;-70
2023/10/01 01:15:38;;;;;;;16.13;7.53;;;11.80;99.90;;;;;;5051871;28;20959;-70
2023/10/01 01:18:07;;;;;;;16.23;6.97;;;11.80;99.90;;;;;;5050530;28;20453;-71
2023/10/01 01:20:36;;;;;;;10.40;6.40;;;11.80;99.90;;;;;;5051817;28;20436;-71
2023/10/01 01:23:06;;;;;;;13.47;6.83;;;11.80;99.90;;;;;;5051818;28;20425;-70
2023/10/01 01:25:33;;;;;;;16.83;6.93;;;11.70;99.90;;;;;;5051138;28;20441;-71
2023/10/01 01:27:59;;;;;;;17.30;7.67;;;11.80;99.90;;;;;;5050260;28;21046;-71
2023/10/01 01:30:29;;;;;;;17.80;7.47;;;11.70;99.90;;;;;;5051636;28;20410;-71
2023/10/01 01:32:57;;;;;;;12.43;7.00;;;11.90;99.90;;;;;;5051731;28;20428;-71
2023/10/01 01:35:28;;;;;;;18.47;7.60;;;11.90;99.90;;;;;;5051539;28;20451;-71
2023/10/01 01:37:58;;;;;;;15.17;7.43;;;11.90;99.90;;;;;;5050365;28;20767;-71
2023/10/01 01:40:26;;;;;;;15.23;7.23;;;11.80;99.90;;;;;;5050185;28;20848;-70
2023/10/01 01:43:03;;;;;;;14.97;7.10;;;11.80;99.90;;;;;;5051536;28;20424;-71
2023/10/01 01:45:33;;;;;;;17.67;7.00;;;11.70;99.90;;;;;;5050060;28;20450;-71
2023/10/01 01:48:00;;;;;;;18.30;7.90;;;11.70;99.90;;;;;;5051871;28;20816;-71
2023/10/01 01:50:26;;;;;;;10.83;6.20;;;11.70;99.90;;;;;;5051389;28;20574;-70
2023/10/01 01:52:56;;;;;;;17.10;7.23;;;11.70;99.90;;;;;;5051365;28;20472;-70
2023/10/01 01:55:29;;;;;;;15.67;7.50;;;11.70;99.90;;;;;;5051161;28;20461;-71
2023/10/01 01:58:09;;;;;;;14.67;8.17;;;11.70;99.90;;;;;;5049867;28;20475;-71
2023/10/01 02:00:37;;;;;;;15.80;7.83;;;11.70;99.90;;;;;;5051333;28;20928;-71
2023/10/01 02:03:10;;;;;;;16.33;8.17;;;11.70;99.90;;;;;;5051300;28;20433;-70
2023/10/01 02:05:37;;;;;;;21.07;9.07;;;11.60;99.90;;;;;;5051250;28;20582;-71
2023/10/01 02:08:06;;;;;;;21.97;9.10;;;11.60;99.90;;;;;;5051147;28;20472;-71
2023/10/01 02:10:44;;;;;;;18.00;9.10;;;11.50;99.90;;;;;;5051199;28;20415;-71
2023/10/01 02:13:12;;;;;;;17.47;8.10;;;11.50;99.90;;;;;;5049784;28;20429;-70
2023/10/01 02:15:37;;;;;;;20.03;8.00;;;11.50;99.90;;;;;;5051275;28;20826;-70
2023/10/01 02:18:04;;;;;;;18.20;8.57;;;11.40;99.90;;;;;;5051103;28;20435;-70
2023/10/01 02:20:33;;;;;;;15.90;8.10;;;11.40;99.90;;;;;;5051082;28;20421;-70
2023/10/01 02:23:02;;;;;;;16.07;7.63;;;11.40;99.90;;;;;;5051056;28;20469;-70
2023/10/01 02:25:37;;;;;;;15.03;7.77;;;11.40;99.90;;;;;;5050910;28;20955;-70
2023/10/01 02:28:14;;;;;;;16.80;7.40;;;11.30;99.90;;;;;;5049623;28;20472;-71
2023/10/01 02:30:41;;;;;;;19.80;7.60;;;11.20;99.90;;;;;;5051081;28;20437;-70
2023/10/01 02:33:18;;;;;;;17.33;7.27;;;11.30;99.90;;;;;;5049656;28;20413;-71
2023/10/01 02:35:46;;;;;;;16.83;8.07;;;11.30;99.90;;;;;;5050907;28;20965;-70
2023/10/01 02:41:02;;;;;;;15.27;7.47;;;11.30;99.90;;;;;;5054117;28;20826;-70
2023/10/01 02:43:34;;;;;;;16.90;8.27;;;11.30;99.90;;;;;;5053625;28;20436;-71
2023/10/01 02:46:26;;;;;;;17.37;7.83;;;11.20;99.90;;;;;;5053419;28;20775;-71
2023/10/01 02:48:54;;;;;;;13.37;6.80;;;11.20;99.90;;;;;;5053350;28;20560;-70
2023/10/01 02:51:32;;;;;;;17.23;8.50;;;11.20;99.90;;;;;;5054676;28;20442;-70
2023/10/01 02:54:06;;;;;;;18.87;8.33;;;11.20;99.90;;;;;;5053573;28;20454;-70
2023/10/01 02:56:33;;;;;;;21.53;8.57;;;11.10;99.90;;;;;;5054557;28;20940;-70
2023/10/01 02:59:10;;;;;;;19.00;7.67;;;11.20;99.90;;;;;;5055039;28;20421;-71
2023/10/01 03:01:42;;;;;;;19.07;8.80;;;11.20;99.90;;;;;;5053205;28;20428;-70
2023/10/01 03:04:18;;;;;;;19.83;8.17;;;11.20;99.90;;;;;;5054415;28;20428;-70
2023/10/01 03:06:55;;;;;;;20.90;8.80;;;11.10;99.90;;;;;;5054417;28;20788;-71
2023/10/01 03:09:28;;;;;;;15.13;7.63;;;11.10;99.90;;;;;;5054357;28;20463;-70
2023/10/01 03:12:23;;;;;;;17.70;7.50;;;11.10;99.90;;;;;;5053174;28;20486;-71
2023/10/01 03:14:43;;;;;;;20.50;9.13;;;11.10;99.90;;;;;;5054053;28;20976;-71
2023/10/01 03:17:09;;;;;;;17.03;7.50;;;11.00;99.90;;;;;;5054183;28;20425;-70
2023/10/01 03:19:36;;;;;;;18.87;8.03;;;10.90;99.90;;;;;;5036311;28;20445;-70
2023/10/01 03:31:22;;;;;;;19.30;8.80;;;10.80;99.90;;;;;;5054245;28;21051;-71
2023/10/01 03:33:53;;;;;;;17.50;8.70;;;10.90;99.90;;;;;;5053849;28;20796;-70
2023/10/01 03:36:25;;;;;;;16.97;8.63;;;10.90;99.90;;;;;;5053789;28;20503;-71
2023/10/01 03:38:57;;;;;;;18.43;9.23;;;10.80;99.90;;;;;;5053788;28;20425;-70
2023/10/01 03:41:23;;;;;;;19.00;8.90;;;10.80;99.90;;;;;;5053710;28;20421;-70
2023/10/01 03:43:54;;;;;;;18.53;9.47;;;10.80;99.90;;;;;;5053971;28;20486;-70
2023/10/01 03:46:26;;;;;;;19.30;9.33;;;10.80;99.90;;;;;;5052253;28;20545;-70
2023/10/01 03:49:33;;;;;;;16.60;9.03;;;10.80;99.90;;;;;;5051558;28;20523;-71
2023/10/01 03:51:55;;;;;;;22.00;9.00;;;10.80;99.90;;;;;;5053366;28;20876;-70
2023/10/01 03:54:51;;;;;;;17.80;8.30;;;10.70;99.90;;;;;;5053508;28;20432;-71
2023/10/01 03:57:11;;;;;;;21.47;9.57;;;10.70;99.90;;;;;;5053294;28;20441;-70
2023/10/01 03:59:38;;;;;;;20.53;9.20;;;10.70;99.90;;;;;;5053360;28;20435;-70
2023/10/01 04:02:26;;;;;;;16.63;8.83;;;10.60;99.90;;;;;;5053364;28;20999;-70
2023/10/01 04:04:58;;;;;;;15.63;8.20;;;10.60;99.90;;;;;;5053114;28;20459;-70
2023/10/01 04:07:26;;;;;;;16.67;8.40;;;10.60;99.90;;;;;;5053251;28;20401;-70
2023/10/01 04:09:55;;;;;;;23.47;8.97;;;10.50;99.90;;;;;;5051821;28;20422;-70
2023/10/01 04:12:28;;;;;;;15.30;8.40;;;10.60;99.90;;;;;;5051805;28;20424;-70
2023/10/01 04:15:01;;;;;;;16.20;8.20;;;10.60;99.90;;;;;;5053015;28;20924;-70
2023/10/01 04:17:28;;;;;;;16.67;9.03;;;10.60;99.90;;;;;;5053120;28;20414;-70
2023/10/01 04:19:57;;;;;;;18.80;9.57;;;10.60;99.90;;;;;;5053057;28;20925;-70
2023/10/01 04:22:25;;;;;;;20.87;9.73;;;10.50;99.90;;;;;;5051629;28;20450;-71
2023/10/01 04:31:48;;;;;;;16.97;8.87;;;10.30;99.90;;;;;;5053125;28;20826;-70
2023/10/01 04:34:15;;;;;;;21.63;10.13;;;10.20;99.90;;;;;;5051577;28;20996;-70
2023/10/01 04:36:50;;;;;;;19.53;9.13;;;10.20;99.90;;;;;;5052730;28;20415;-70
2023/10/01 04:39:17;;;;;;;20.93;10.30;;;10.10;99.90;;;;;;5051465;28;20942;-70
2023/10/01 04:41:42;;;;;;;20.90;9.97;;;10.20;99.90;;;;;;5052602;28;20429;-71
2023/10/01 04:44:08;;;;;;;23.93;8.73;;;10.30;99.90;;;;;;5052488;28;20421;-71
2023/10/01 04:46:40;;;;;;;22.63;10.00;;;10.30;99.90;;;;;;5052575;28;20210;-71
2023/10/01 04:49:26;;;;;;;17.83;8.80;;;10.30;99.90;;;;;;5052443;28;20213;-71
2023/10/01 04:52:10;;;;;;;20.13;8.70;;;10.40;99.90;;;;;;5052496;28;20884;-71
2023/10/01 04:54:37;;;;;;;19.00;8.93;;;10.40;99.90;;;;;;5052307;28;20477;-71
2023/10/01 04:57:02;;;;;;;20.03;9.33;;;10.40;99.90;;;;;;5050889;28;20472;-71
2023/10/01 04:59:28;;;;;;;17.83;8.20;;;10.50;99.90;;;;;;5052218;28;20458;-71
2023/10/01 05:01:56;;;;;;;15.63;8.47;;;10.50;99.90;;;;;;5049952;28;20659;-71
2023/10/01 05:04:30;;;;;;;21.80;9.43;;;10.50;99.90;;;;;;5050696;28;20238;-71
2023/10/01 05:07:04;;;;;;;16.50;9.40;;;10.60;99.90;;;;;;5050905;28;20424;-71
2023/10/01 05:09:36;;;;;;;19.97;9.17;;;10.70;99.90;;;;;;5052044;28;20474;-71
2023/10/01 05:12:03;;;;;;;19.37;8.47;;;10.60;99.90;;;;;;5018961;28;20480;-71
2023/10/01 05:14:29;;;;;;;20.07;9.10;;;10.50;99.90;;;;;;5050726;28;20465;-71
2023/10/01 05:16:54;;;;;;;18.30;7.93;;;10.50;99.90;;;;;;5051936;28;20412;-71
2023/10/01 05:19:24;;;;;;;18.43;9.00;;;10.40;99.90;;;;;;5050658;28;20182;-71
2023/10/01 05:21:50;;;;;;;19.70;9.77;;;10.50;99.90;;;;;;5050573;28;20314;-71
2023/10/01 05:24:36;;;;;;;25.60;10.67;;;10.50;99.90;;;;;;5051830;28;20426;-71
2023/10/01 05:27:09;;;;;;;21.07;9.67;;;10.50;99.90;;;;;;5050651;28;21008;-71
2023/10/01 05:29:42;;;;;;;22.80;9.90;;;10.60;99.90;;;;;;5051628;28;20456;-72
2023/10/01 05:32:10;;;;;;;22.43;9.70;;;10.70;99.90;;;;;;5051818;28;20441;-71
2023/10/01 05:34:38;;;;;;;18.20;8.90;;;10.60;99.90;;;;;;5050461;28;20496;-71
2023/10/01 05:37:12;;;;;;;20.47;9.33;;;10.60;99.90;;;;;;5051776;28;20450;-71
2023/10/01 05:39:59;;;;;;;17.93;8.90;;;10.60;99.90;;;;;;5050274;28;20439;-71
2023/10/01 05:42:25;;;;;;;17.73;8.20;;;10.60;99.90;;;;;;5051543;28;20478;-71
2023/10/01 05:45:00;;;;;;;22.37;9.40;;;10.60;99.90;;;;;;5050176;28;20441;-71
2023/10/01 05:47:41;;;;;;;22.20;10.10;;;10.60;99.90;;;;;;5050218;28;20825;-71
2023/10/01 05:50:10;;;;;;;23.93;10.27;;;10.60;99.90;;;;;;5051526;28;20418;-71
2023/10/01 05:52:40;;;;;;;23.70;9.97;;;10.60;99.90;;;;;;5051460;28;20504;-71
2023/10/01 05:55:12;;;;;;;22.20;9.30;;;10.70;99.90;;;;;;5051377;28;20966;-71
2023/10/01 05:57:40;;;;;;;22.53;9.67;;;10.70;99.90;;;;;;5051260;28;20805;-71
2023/10/01 06:00:17;;;;;;;25.13;10.97;;;10.70;99.90;;;;;;5049968;28;20464;-73
2023/10/01 06:03:00;;;;;;;22.00;9.73;;;10.80;99.90;;;;;;5049946;28;20466;-71
2023/10/01 06:05:33;;;;;;;23.67;10.80;;;10.90;99.90;;;;;;5051212;28;20435;-71
2023/10/01 06:08:00;;;;;;;20.27;9.47;;;10.90;99.90;;;;;;5051301;28;21230;-71
2023/10/01 06:10:35;;;;;;;20.10;9.83;;;11.10;99.90;;;;;;5051253;28;20416;-71
2023/10/01 06:13:06;;;;;;;25.53;10.03;;;11.30;99.90;;;;;;5056277;28;20409;-71
2023/10/01 06:15:33;;;;;;;20.60;9.87;;;11.50;99.90;;;;;;5056397;28;20457;-71
2023/10/01 06:18:04;;;;;;;20.03;8.90;;;11.60;99.90;;;;;;5057802;28;20884;-71
2023/10/01 06:20:33;;;;;;;18.60;8.97;;;11.40;99.90;;;;;;5057776;28;20507;-71
2023/10/01 06:22:59;;;;;;;16.73;8.50;;;11.50;99.90;;;;;;5040178;28;20433;-71
2023/10/01 06:25:40;;;;;;;22.93;9.40;;;11.60;99.90;;;;;;5056458;28;20490;-71
2023/10/01 06:28:09;;;;;;;18.80;9.37;;;11.60;99.90;;;;;;5056590;28;20911;-71
2023/10/01 06:30:43;;;;;;;23.77;9.50;;;11.60;99.90;;;;;;5056525;28;20419;-71
2023/10/01 06:33:24;;;;;;;22.47;9.57;;;11.50;99.90;;;;;;5040206;28;20517;-71
2023/10/01 06:36:15;;;;;;;21.80;9.13;;;11.60;99.90;;;;;;5056193;28;20444;-71
2023/10/01 06:38:37;;;;;;;16.87;9.57;;;11.60;99.90;;;;;;5057566;28;20997;-71
2023/10/01 06:41:06;;;;;;;19.13;10.03;;;11.80;99.90;;;;;;5057718;28;20425;-71
2023/10/01 06:43:32;;;;;;;17.77;9.17;;;11.90;99.90;;;;;;5056229;28;20444;-71
2023/10/01 06:45:59;;;;;;;19.40;10.00;;;12.10;99.90;;;;;;5056194;28;20503;-71
2023/10/01 06:48:27;;;;;;;20.93;10.97;;;12.00;99.90;;;;;;5056220;28;20844;-71
2023/10/01 06:50:53;;;;;;;25.77;11.70;;;11.90;99.90;;;;;;5057821;28;20839;-71
2023/10/01 06:53:43;;;;;;;18.70;9.33;;;11.90;99.90;;;;;;5057517;28;20834;-71
2023/10/01 06:56:05;;;;;;;19.23;9.27;;;11.80;99.90;;;;;;5057248;28;20464;-71
2023/10/01 06:58:32;;;;;;;23.00;11.13;;;11.80;99.90;;;;;;5056169;28;21015;-71
2023/10/01 07:00:59;;;;;;;25.13;10.50;;;11.90;99.90;;;;;;5057503;28;20191;-71
2023/10/01 07:03:30;;;;;;;19.20;9.37;;;12.00;99.90;;;;;;5056296;28;20417;-71
2023/10/01 07:05:59;;;;;;;20.57;9.70;;;12.10;99.90;;;;;;5057419;28;20874;-71
2023/10/01 07:08:37;;;;;;;21.13;9.73;;;12.20;99.90;;;;;;5056020;28;20500;-71
2023/10/01 07:11:11;;;;;;;22.00;11.00;;;12.30;99.90;;;;;;5056310;28;20420;-71
2023/10/01 07:13:38;;;;;;;19.47;10.23;;;12.30;99.90;;;;;;5056253;28;20416;-71
2023/10/01 07:16:04;;;;;;;21.47;9.80;;;12.40;99.90;;;;;;5057258;28;20430;-71
2023/10/01 07:18:30;;;;;;;20.90;9.97;;;12.50;99.90;;;;;;5057373;28;20426;-71
2023/10/01 07:21:00;;;;;;;20.30;10.93;;;12.60;99.90;;;;;;5056010;28;20481;-71
2023/10/01 07:23:26;;;;;;;17.03;9.40;;;12.70;99.90;;;;;;5053783;28;20463;-71
2023/10/01 07:26:00;;;;;;;18.73;10.03;;;12.90;99.90;;;;;;5054144;28;20956;-71
2023/10/01 07:28:26;;;;;;;20.27;10.37;;;13.00;99.90;;;;;;5054030;28;20542;-71
2023/10/01 07:30:56;;;;;;;23.23;10.63;;;13.00;99.90;;;;;;5054080;28;20990;-71
2023/10/01 07:33:22;;;;;;;21.20;9.53;;;13.10;99.90;;;;;;5052845;28;20178;-71
2023/10/01 07:36:00;;;;;;;21.40;10.33;;;13.20;99.90;;;;;;5053864;28;20456;-71
2023/10/01 07:38:46;;;;;;;20.13;10.80;;;13.20;99.90;;;;;;5053952;28;20516;-71
2023/10/01 07:41:17;;;;;;;22.40;10.17;;;13.30;99.90;;;;;;5053860;28;20417;-71
2023/10/01 07:43:43;;;;;;;25.10;10.40;;;13.40;99.90;;;;;;5053884;28;20456;-71
2023/10/01 07:46:09;;;;;;;26.03;10.93;;;13.50;99.90;;;;;;5053609;28;20452;-71
2023/10/01 07:48:35;;;;;;;22.73;11.50;;;13.50;99.90;;;;;;5053554;28;20466;-71
2023/10/01 07:51:04;;;;;;;19.40;10.03;;;13.60;99.90;;;;;;5053592;28;20183;-71
2023/10/01 07:53:34;;;;;;;20.63;10.37;;;13.70;99.90;;;;;;5053636;28;20406;-71
2023/10/01 07:56:03;;;;;;;20.20;9.80;;;13.80;99.90;;;;;;5053478;28;20460;-71
2023/10/01 07:58:45;;;;;;;20.43;9.63;;;14.00;99.90;;;;;;5052326;28;20497;-71
2023/10/01 08:03:56;;;;;;;18.33;8.63;;;14.30;99.90;;;;;;5053389;28;20421;-71
2023/10/01 08:06:29;;;;;;;19.77;10.10;;;14.40;99.90;;;;;;5035284;28;20460;-71
2023/10/01 08:08:59;;;;;;;17.60;8.97;;;14.50;99.90;;;;;;5052157;28;20598;-71
2023/10/01 08:14:11;;;;;;;19.37;8.50;;;14.90;99.90;;;;;;5053310;28;20472;-71
2023/10/01 08:16:52;;;;;;;19.37;9.10;;;15.00;99.90;;;;;;5053194;28;20415;-71
2023/10/01 08:19:22;;;;;;;20.33;9.73;;;15.10;99.90;;;;;;5037469;28;20517;-71
2023/10/01 08:21:51;;;;;;;22.83;9.67;;;15.30;99.90;;;;;;5051556;28;20476;-71
2023/10/01 08:24:20;;;;;;;19.33;9.30;;;15.50;99.90;;;;;;5053019;28;20783;-71
2023/10/01 08:27:12;;;;;;;18.70;9.00;;;15.70;99.90;;;;;;5053066;28;20952;-71
2023/10/01 08:32:23;;;;;;;19.53;9.70;;;16.10;99.90;;;;;;5053102;28;20932;-71
2023/10/01 08:35:06;;;;;;;20.27;10.07;;;16.20;99.90;;;;;;5052492;28;20434;-71
2023/10/01 08:37:32;;;;;;;19.57;8.70;;;16.30;99.90;;;;;;5051746;28;20172;-72
2023/10/01 08:39:58;;;;;;;17.13;8.13;;;16.40;99.90;;;;;;5052711;28;20422;-72
2023/10/01 08:42:28;;;;;;;20.13;9.80;;;16.70;99.90;;;;;;5052758;28;20441;-71
2023/10/01 08:45:11;;;;;;;18.60;9.60;;;16.80;99.90;;;;;;5052575;28;20441;-71
2023/10/01 08:47:37;;;;;;;21.23;9.47;;;17.00;99.90;;;;;;5051472;28;20420;-72
2023/10/01 08:50:19;;;;;;;23.43;8.37;;;17.20;99.90;;;;;;5051295;28;20420;-71
2023/10/01 08:53:36;;;;;;;17.00;8.20;;;17.40;99.90;;;;;;5051109;28;20425;-71
2023/10/01 08:55:39;;;;;;;14.83;8.07;;;17.60;99.90;;;;;;5054988;28;20591;-71
2023/10/01 09:00:48;;;;;;;20.50;8.87;;;18.00;99.90;;;;;;5052312;28;20423;-71
2023/10/01 09:03:29;;;;;;;17.67;8.37;;;18.20;99.90;;;;;;5052311;28;20814;-71
2023/10/01 09:06:06;;;;;;;15.27;8.00;;;18.60;99.90;;;;;;5052185;28;20448;-71
2023/10/01 09:08:45;;;;;;;18.47;8.73;;;18.90;99.90;;;;;;5052088;28;20504;-71
2023/10/01 09:11:16;;;;;;;18.80;9.13;;;19.20;99.90;;;;;;5052141;28;20414;-71
2023/10/01 09:13:58;;;;;;;18.40;8.53;;;19.70;99.90;;;;;;5052075;28;20416;-71
2023/10/01 09:16:33;;;;;;;31.00;9.30;;;20.30;99.90;;;;;;5051928;28;20823;-71
2023/10/01 09:21:46;;;;;;;20.93;8.50;;;21.40;99.90;;;;;;5051041;28;20421;-71
2023/10/01 09:24:34;;;;;;;20.00;8.83;;;21.80;99.90;;;;;;5051770;28;20427;-71
2023/10/01 09:27:20;;;;;;;19.00;7.70;;;22.50;99.90;;;;;;5051927;28;20445;-71
2023/10/01 09:29:48;;;;;;;19.40;8.27;;;23.00;99.10;;;;;;5051786;28;20462;-72
2023/10/01 09:32:14;;;;;;;16.77;8.00;;;23.20;98.20;;;;;;5050414;28;20429;-72
2023/10/01 09:34:53;;;;;;;20.67;8.80;;;23.40;95.60;;;;;;5051534;28;20453;-72
2023/10/01 09:37:35;;;;;;;17.83;7.70;;;23.60;94.60;;;;;;5051551;28;20410;-72
2023/10/01 09:40:32;;;;;;;18.17;7.87;;;24.00;95.00;;;;;;5051467;28;20419;-72
2023/10/01 09:43:02;;;;;;;18.07;9.17;;;24.20;92.60;;;;;;5050035;28;20422;-72
2023/10/01 09:45:37;;;;;;;20.60;9.20;;;24.20;92.10;;;;;;5050120;28;20877;-72
2023/10/01 09:48:05;;;;;;;18.17;8.70;;;24.60;92.40;;;;;;5050788;28;20475;-72
2023/10/01 09:50:39;;;;;;;16.97;8.73;;;25.10;90.80;;;;;;5051328;28;20422;-72
2023/10/01 09:53:14;;;;;;;17.23;8.70;;;25.20;89.20;;;;;;5051362;28;20416;-72
2023/10/01 09:55:47;;;;;;;15.97;7.77;;;25.60;89.00;;;;;;5051131;28;20942;-72
2023/10/01 09:58:25;;;;;;;21.13;8.90;;;26.20;86.10;;;;;;5051384;28;20449;-72
2023/10/01 10:00:52;;;;;;;15.33;7.63;;;25.90;83.20;;;;;;5051342;28;20428;-72
2023/10/01 10:03:18;;;;;;;16.00;8.63;;;26.00;86.90;;;;;;5051212;28;20461;-72
2023/10/01 10:05:46;;;;;;;16.20;8.40;;;26.50;85.80;;;;;;5049931;28;20598;-72
2023/10/01 10:08:13;;;;;;;13.10;7.67;;;26.70;80.10;;;;;;5051163;28;20459;-72
2023/10/01 10:10:52;;;;;;;17.53;8.37;;;27.00;78.50;;;;;;5051645;28;20418;-72
2023/10/01 10:13:46;;;;;;;19.50;8.53;;;27.00;77.40;;;;;;5051258;28;20515;-72
2023/10/01 10:16:30;;;;;;;20.33;9.20;;;26.80;75.70;;;;;;5049819;28;20484;-72
2023/10/01 10:19:21;;;;;;;15.40;8.70;;;27.20;77.80;;;;;;5051279;28;20840;-72
2023/10/01 10:24:30;;;;;;;24.50;9.37;;;27.70;73.50;;;;;;5051279;28;20440;-73
2023/10/01 10:27:07;;;;;;;16.37;8.77;;;27.70;80.40;;;;;;5051107;28;20421;-72
2023/10/01 10:29:57;;;;;;;16.63;8.70;;;27.50;73.50;;;;;;5051178;28;20879;-72
2023/10/01 10:32:26;;;;;;;17.10;9.20;;;27.10;79.00;;;;;;5051140;28;20414;-72
2023/10/01 10:35:04;;;;;;;19.50;8.47;;;27.20;77.90;;;;;;5051051;28;20942;-73
2023/10/01 10:37:35;;;;;;;16.00;8.83;;;27.40;73.30;;;;;;5050992;28;20879;-72
2023/10/01 10:40:44;;;;;;;17.17;9.43;;;27.50;77.80;;;;;;5049619;28;20464;-72
2023/10/01 10:42:57;;;;;;;15.83;8.40;;;27.50;77.60;;;;;;5053068;28;20437;-72
2023/10/01 10:45:29;;;;;;;18.13;9.10;;;27.30;83.70;;;;;;5051000;28;20581;-72
2023/10/01 10:47:59;;;;;;;15.87;8.00;;;27.60;85.60;;;;;;5049628;28;20438;-72
2023/10/01 10:50:49;;;;;;;18.70;8.40;;;27.50;84.50;;;;;;5049519;28;20571;-72
2023/10/01 10:53:25;;;;;;;18.33;8.80;;;27.50;86.90;;;;;;5049422;28;20422;-72
2023/10/01 10:55:53;;;;;;;15.10;8.90;;;27.50;87.00;;;;;;5050700;28;21159;-72
2023/10/01 10:58:20;;;;;;;14.97;7.73;;;28.10;82.10;;;;;;5050797;28;20414;-72
2023/10/01 11:00:47;;;;;;;13.53;7.70;;;28.00;83.80;;;;;;5054539;28;20417;-72
2023/10/01 11:03:12;;;;;;;19.87;8.90;;;27.80;89.00;;;;;;5054629;28;20414;-72
2023/10/01 11:05:49;;;;;;;17.50;8.80;;;27.30;84.80;;;;;;5054668;28;20966;-73
2023/10/01 11:08:25;;;;;;;15.23;8.07;;;27.50;90.80;;;;;;5054421;28;20226;-71
2023/10/01 11:10:56;;;;;;;15.60;8.93;;;27.60;90.90;;;;;;5054585;28;20437;-73
2023/10/01 11:13:38;;;;;;;16.63;9.17;;;27.60;89.10;;;;;;5054403;28;20421;-73
2023/10/01 11:16:15;;;;;;;18.83;8.40;;;27.60;92.60;;;;;;5054430;28;20429;-73
2023/10/01 11:18:44;;;;;;;15.57;8.87;;;27.40;89.50;;;;;;5052976;28;20441;-73
2023/10/01 11:21:20;;;;;;;14.83;8.77;;;27.10;88.70;;;;;;5054283;28;20425;-73
2023/10/01 11:23:53;;;;;;;18.33;9.07;;;27.10;88.80;;;;;;5054271;28;20798;-72
2023/10/01 11:26:29;;;;;;;16.23;9.10;;;27.00;87.50;;;;;;5052973;28;20441;-72
2023/10/01 11:29:10;;;;;;;17.60;8.77;;;27.40;88.00;;;;;;5052640;28;20473;-72
2023/10/01 11:31:38;;;;;;;16.50;8.17;;;27.30;87.20;;;;;;5053022;28;20422;-72
2023/10/01 11:34:21;;;;;;;17.17;7.70;;;27.00;87.50;;;;;;5053955;28;20805;-72
2023/10/01 11:36:56;;;;;;;15.43;8.50;;;27.00;89.70;;;;;;5053899;28;20508;-72
2023/10/01 11:39:38;;;;;;;15.00;8.50;;;27.00;76.40;;;;;;5053933;28;20424;-72
2023/10/01 11:42:19;;;;;;;14.83;8.10;;;26.70;81.50;;;;;;5053777;28;20430;-72
2023/10/01 11:44:52;;;;;;;14.30;8.47;;;26.80;84.40;;;;;;5052351;28;20442;-71
2023/10/01 11:47:31;;;;;;;19.80;9.00;;;26.10;80.80;;;;;;5053741;28;20430;-71
2023/10/01 11:50:07;;;;;;;14.40;8.53;;;26.20;83.20;;;;;;5053662;28;20473;-72
2023/10/01 11:52:34;;;;;;;16.33;8.80;;;26.30;79.00;;;;;;5052599;28;20787;-72
2023/10/01 11:54:59;;;;;;;14.00;7.50;;;26.00;82.40;;;;;;5053584;28;20442;-71
2023/10/01 11:57:31;;;;;;;17.07;9.67;;;25.80;87.00;;;;;;5053442;28;21032;-71
2023/10/01 12:00:01;;;;;;;16.87;8.73;;;25.80;83.40;;;;;;5053702;28;20215;-71
2023/10/01 12:02:33;;;;;;;16.90;8.50;;;25.60;81.10;;;;;;5052188;28;20430;-73
2023/10/01 12:05:03;;;;;;;16.80;8.83;;;25.50;83.00;;;;;;5053391;28;20862;-72
2023/10/01 12:07:39;;;;;;;14.20;8.30;;;25.40;81.90;;;;;;5052101;28;20429;-71
2023/10/01 12:10:07;;;;;;;16.90;9.20;;;25.50;80.90;;;;;;5052934;28;20408;-73
2023/10/01 12:12:37;;;;;;;13.73;8.07;;;25.50;79.90;;;;;;5053859;28;20776;-71
2023/10/01 12:17:54;;;;;;;16.47;8.67;;;25.50;80.60;;;;;;5053435;28;20447;-71
2023/10/01 12:20:23;;;;;;;14.13;8.23;;;25.40;82.90;;;;;;5053114;28;20775;-71
2023/10/01 12:23:10;;;;;;;17.37;10.03;;;25.50;80.30;;;;;;5053304;28;20409;-71
2023/10/01 12:28:28;;;;;;;18.00;9.47;;;25.40;79.20;;;;;;5052100;28;20848;-72
2023/10/01 12:30:58;;;;;;;17.23;8.30;;;25.40;84.50;;;;;;5053012;28;20424;-72
2023/10/01 12:33:25;;;;;;;21.80;9.53;;;25.40;79.40;;;;;;5051656;28;20961;-72
2023/10/01 12:35:52;;;;;;;15.20;9.10;;;25.50;82.00;;;;;;5052723;28;20446;-72
2023/10/01 12:40:49;;;;;;;16.97;9.90;;;25.40;81.90;;;;;;5052747;28;20430;-72
2023/10/01 12:45:59;;;;;;;15.80;8.50;;;25.40;81.60;;;;;;5051773;28;20441;-72
2023/10/01 12:48:24;;;;;;;15.33;8.30;;;25.20;81.80;;;;;;5052452;28;20470;-72
2023/10/01 12:51:00;;;;;;;18.13;9.37;;;25.50;82.20;;;;;;5052522;28;20207;-72
2023/10/01 12:53:34;;;;;;;15.07;8.10;;;25.60;78.70;;;;;;5053039;28;20179;-72
2023/10/01 12:56:02;;;;;;;15.40;8.20;;;25.40;75.20;;;;;;5052365;28;20448;-72
2023/10/01 12:58:39;;;;;;;15.50;8.13;;;25.20;77.50;;;;;;5051173;28;20418;-72
2023/10/01 13:01:23;;;;;;;19.17;9.20;;;25.40;81.00;;;;;;5051270;28;20514;-72
2023/10/01 13:03:52;;;;;;;18.57;9.53;;;25.50;79.00;;;;;;5052364;28;20482;-72
2023/10/01 13:06:18;;;;;;;14.50;7.77;;;25.50;78.70;;;;;;5052148;28;20438;-72
2023/10/01 13:08:44;;;;;;;15.17;7.80;;;25.50;80.50;;;;;;5050937;28;20472;-72
2023/10/01 13:11:50;;;;;;;18.03;8.03;;;25.50;77.80;;;;;;5034366;28;20191;-72
2023/10/01 13:13:58;;;;;;;15.20;8.70;;;25.60;78.50;;;;;;5052062;28;20420;-72
2023/10/01 13:16:24;;;;;;;16.60;8.57;;;25.80;77.50;;;;;;5053566;28;20445;-72
2023/10/01 13:18:54;;;;;;;14.87;7.50;;;25.70;79.20;;;;;;5052539;28;20424;-74
2023/10/01 13:21:19;;;;;;;16.10;7.87;;;25.70;78.30;;;;;;5051985;28;20192;-72
2023/10/01 13:23:45;;;;;;;16.10;8.23;;;25.70;81.10;;;;;;5051876;28;20426;-72
2023/10/01 13:26:15;;;;;;;14.50;8.40;;;25.80;80.60;;;;;;5051876;28;20205;-72
2023/10/01 13:28:51;;;;;;;17.53;8.57;;;25.80;78.90;;;;;;5051774;28;20994;-72
2023/10/01 13:31:51;;;;;;;16.43;8.40;;;25.70;78.10;;;;;;5051791;28;20417;-72
2023/10/01 13:34:21;;;;;;;17.10;8.13;;;25.70;78.70;;;;;;5050377;28;20433;-72
2023/10/01 13:39:44;;;;;;;13.83;8.33;;;25.70;80.10;;;;;;5051731;28;20421;-72
2023/10/01 14:09:48;;;;;;;11.87;7.20;;;25.10;81.10;;;;;;5051411;28;21010;-74
2023/10/01 14:15:04;;;;;;;13.97;7.53;;;24.90;81.50;;;;;;5051386;28;20483;-74
2023/10/01 14:17:30;;;;;;;17.90;8.03;;;24.80;81.80;;;;;;5051309;28;20522;-74
2023/10/01 14:19:55;;;;;;;15.97;8.47;;;24.80;81.40;;;;;;5051162;28;20989;-74